createdAt,value
2023-01-15T00:02:07.912Z,99525.56
2023-01-15T00:04:35.090Z,99525.56
2023-01-15T00:07:02.990Z,99536.00
2023-01-15T00:09:29.676Z,99538.69
2023-01-15T00:11:56.554Z,99519.06
2023-01-15T00:14:23.461Z,99519.19
2023-01-15T00:16:53.749Z,99525.81
2023-01-15T00:19:20.649Z,99516.91
2023-01-15T00:21:47.664Z,99524.28
2023-01-15T00:24:33.125Z,99521.28
2023-01-15T00:27:29.544Z,99514.22
2023-01-15T00:29:56.217Z,99501.78
2023-01-15T00:32:22.990Z,99501.50
2023-01-15T00:34:49.791Z,99500.47
2023-01-15T00:37:16.414Z,99488.75
2023-01-15T00:39:43.146Z,99487.03
2023-01-15T00:42:12.083Z,99479.13
2023-01-15T00:44:38.942Z,99462.19
2023-01-15T00:47:06.936Z,99478.16
2023-01-15T00:49:33.679Z,99460.19
2023-01-15T00:52:00.702Z,99445.78
2023-01-15T00:54:27.471Z,99460.72
2023-01-15T00:56:54.274Z,99459.59
2023-01-15T00:59:21.012Z,99433.41
2023-01-15T01:01:47.778Z,99471.38
2023-01-15T01:04:14.633Z,99435.31
2023-01-15T01:06:41.644Z,99446.91
2023-01-15T01:09:08.360Z,99452.16
2023-01-15T01:11:36.898Z,99444.00
2023-01-15T01:14:03.704Z,99457.03
2023-01-15T01:16:35.890Z,99474.72
2023-01-15T01:19:07.320Z,99473.41
2023-01-15T01:21:34.038Z,99465.03
2023-01-15T01:24:01.579Z,99481.88
2023-01-15T01:26:29.948Z,99477.00
2023-01-15T01:28:57.331Z,99478.34
2023-01-15T01:31:24.836Z,99463.91
2023-01-15T01:33:54.255Z,99470.13
2023-01-15T01:36:25.747Z,99468.97
2023-01-15T01:38:52.445Z,99474.88
2023-01-15T01:41:19.340Z,99467.50
2023-01-15T01:43:52.876Z,99477.41
2023-01-15T01:46:19.689Z,99470.88
2023-01-15T01:48:48.634Z,99476.25
2023-01-15T01:51:15.461Z,99474.22
2023-01-15T01:53:42.382Z,99473.41
2023-01-15T01:56:11.907Z,99471.88
2023-01-15T01:58:39.611Z,99462.44
2023-01-15T02:01:06.793Z,99472.69
2023-01-15T02:03:37.381Z,99472.53
2023-01-15T02:06:08.698Z,99464.47
2023-01-15T02:08:39.553Z,99478.72
2023-01-15T02:11:08.275Z,99470.13
2023-01-15T02:13:38.423Z,99453.81
2023-01-15T02:16:17.481Z,99475.63
2023-01-15T02:18:49.287Z,99456.28
2023-01-15T02:21:36.354Z,99458.97
2023-01-15T02:24:21.722Z,99467.22
2023-01-15T02:27:01.755Z,99462.84
2023-01-15T02:29:40.048Z,99467.38
2023-01-15T02:32:14.015Z,99460.97
2023-01-15T02:34:48.673Z,99463.66
2023-01-15T02:37:25.807Z,99451.25
2023-01-15T02:39:55.611Z,99451.91
2023-01-15T02:42:24.889Z,99456.63
2023-01-15T02:44:53.944Z,99455.31
2023-01-15T02:47:26.398Z,99448.22
2023-01-15T02:49:57.680Z,99447.91
2023-01-15T02:52:30.090Z,99444.72
2023-01-15T02:55:04.350Z,99442.41
2023-01-15T02:57:35.654Z,99427.66
2023-01-15T03:00:07.466Z,99431.84
2023-01-15T03:02:39.593Z,99437.91
2023-01-15T03:05:12.379Z,99446.66
2023-01-15T03:07:53.378Z,99449.88
2023-01-15T03:10:29.575Z,99448.03
2023-01-15T03:13:02.917Z,99441.97
2023-01-15T03:16:05.435Z,99440.97
2023-01-15T03:18:46.845Z,99430.41
2023-01-15T03:21:21.376Z,99426.22
2023-01-15T03:23:52.719Z,99427.91
2023-01-15T03:26:19.833Z,99437.53
2023-01-15T03:28:48.761Z,99445.09
2023-01-15T03:31:16.290Z,99438.84
2023-01-15T03:33:43.324Z,99439.34
2023-01-15T03:36:11.151Z,99428.91
2023-01-15T03:38:39.500Z,99437.31
2023-01-15T03:41:43.866Z,99438.31
2023-01-15T03:44:25.760Z,99438.16
2023-01-15T03:47:21.491Z,99436.16
2023-01-15T03:49:54.946Z,99441.38
2023-01-15T03:52:40.995Z,99445.72
2023-01-15T03:55:14.233Z,99455.50
2023-01-15T03:57:48.173Z,99445.41
2023-01-15T04:00:23.844Z,99439.00
2023-01-15T04:02:53.095Z,99434.34
2023-01-15T04:05:20.540Z,99433.34
2023-01-15T04:07:49.874Z,99432.31
2023-01-15T04:10:16.983Z,99436.53
2023-01-15T04:12:43.742Z,99438.22
2023-01-15T04:15:12.506Z,99441.56
2023-01-15T04:17:39.417Z,99441.28
2023-01-15T04:20:06.862Z,99467.84
2023-01-15T04:22:33.673Z,99462.66
2023-01-15T04:25:00.455Z,99451.41
2023-01-15T04:27:27.472Z,99458.31
2023-01-15T04:29:55.780Z,99446.00
2023-01-15T04:32:22.740Z,99455.78
2023-01-15T04:34:49.883Z,99455.78
2023-01-15T04:37:17.936Z,99462.31
2023-01-15T04:39:44.641Z,99467.72
2023-01-15T04:42:31.840Z,99463.31
2023-01-15T04:44:58.703Z,99456.59
2023-01-15T04:47:25.377Z,99451.53
2023-01-15T04:49:52.464Z,99458.09
2023-01-15T04:52:19.635Z,99448.16
2023-01-15T04:54:46.400Z,99462.63
2023-01-15T04:57:13.208Z,99462.63
2023-01-15T04:59:40.024Z,99463.63
2023-01-15T05:02:07.180Z,99472.69
2023-01-15T05:04:35.332Z,99482.28
2023-01-15T05:07:04.404Z,99460.78
2023-01-15T05:09:31.700Z,99469.69
2023-01-15T05:11:58.652Z,99467.84
2023-01-15T05:14:25.401Z,99472.22
2023-01-15T05:16:52.177Z,99488.22
2023-01-15T05:19:18.942Z,99468.50
2023-01-15T05:21:46.049Z,99488.22
2023-01-15T05:24:15.889Z,99487.34
2023-01-15T05:26:43.148Z,99482.84
2023-01-15T05:29:11.872Z,99486.19
2023-01-15T05:31:39.614Z,99489.88
2023-01-15T05:34:06.294Z,99487.34
2023-01-15T05:36:33.381Z,99492.91
2023-01-15T05:39:02.318Z,99503.81
2023-01-15T05:41:48.604Z,99486.16
2023-01-15T05:44:22.319Z,99495.22
2023-01-15T05:46:51.310Z,99498.78
2023-01-15T05:49:21.860Z,99488.69
2023-01-15T05:51:49.625Z,99495.59
2023-01-15T05:54:21.351Z,99493.25
2023-01-15T05:56:49.113Z,99497.31
2023-01-15T05:59:17.962Z,99486.38
2023-01-15T06:01:45.129Z,99515.81
2023-01-15T06:04:17.789Z,99497.69
2023-01-15T06:06:44.573Z,99519.22
2023-01-15T06:09:11.488Z,99509.28
2023-01-15T06:11:38.676Z,99530.66
2023-01-15T06:14:05.465Z,99525.94
2023-01-15T06:16:33.235Z,99540.09
2023-01-15T06:19:05.024Z,99536.41
2023-01-15T06:21:33.405Z,99535.38
2023-01-15T06:24:00.228Z,99531.69
2023-01-15T06:26:27.981Z,99539.75
2023-01-15T06:28:54.868Z,99541.94
2023-01-15T06:31:23.624Z,99559.78
2023-01-15T06:33:50.464Z,99561.31
2023-01-15T06:36:21.854Z,99563.03
2023-01-15T06:38:49.495Z,99568.41
2023-01-15T06:41:43.278Z,99578.19
2023-01-15T06:44:31.987Z,99576.66
2023-01-15T06:47:17.745Z,99581.00
2023-01-15T06:49:44.510Z,99594.63
2023-01-15T06:52:11.347Z,99594.63
2023-01-15T06:54:38.238Z,99597.31
2023-01-15T06:57:04.966Z,99600.19
2023-01-15T06:59:31.869Z,99605.72
2023-01-15T07:01:58.878Z,99600.34
2023-01-15T07:04:25.662Z,99601.50
2023-01-15T07:06:52.420Z,99597.16
2023-01-15T07:09:19.371Z,99616.28
2023-01-15T07:11:52.176Z,99614.63
2023-01-15T07:14:24.705Z,99622.16
2023-01-15T07:16:52.065Z,99615.09
2023-01-15T07:19:19.316Z,99615.94
2023-01-15T07:21:46.482Z,99623.31
2023-01-15T07:24:14.165Z,99634.97
2023-01-15T07:26:42.379Z,99635.94
2023-01-15T07:29:09.450Z,99641.34
2023-01-15T07:31:36.196Z,99645.72
2023-01-15T07:34:03.308Z,99648.41
2023-01-15T07:36:30.505Z,99648.41
2023-01-15T07:38:57.177Z,99649.25
2023-01-15T07:41:42.809Z,99656.50
2023-01-15T07:44:31.375Z,99667.25
2023-01-15T07:47:17.370Z,99669.63
2023-01-15T07:49:48.746Z,99669.63
2023-01-15T07:52:17.521Z,99674.00
2023-01-15T07:54:45.914Z,99678.38
2023-01-15T07:57:14.948Z,99667.59
2023-01-15T07:59:41.737Z,99673.84
2023-01-15T08:02:08.660Z,99677.38
2023-01-15T08:04:35.578Z,99677.38
2023-01-15T08:07:04.480Z,99681.06
2023-01-15T08:09:31.737Z,99680.06
2023-01-15T08:12:21.407Z,99688.16
2023-01-15T08:15:06.775Z,99701.28
2023-01-15T08:17:35.185Z,99700.28
2023-01-15T08:20:03.542Z,99704.69
2023-01-15T08:22:30.327Z,99703.81
2023-01-15T08:24:57.112Z,99700.28
2023-01-15T08:27:23.882Z,99713.75
2023-01-15T08:29:50.714Z,99708.38
2023-01-15T08:32:17.385Z,99722.00
2023-01-15T08:34:44.118Z,99714.91
2023-01-15T08:37:10.840Z,99716.75
2023-01-15T08:39:37.531Z,99713.22
2023-01-15T08:42:04.593Z,99713.53
2023-01-15T08:44:31.371Z,99724.63
2023-01-15T08:46:58.107Z,99716.72
2023-01-15T08:49:24.851Z,99729.84
2023-01-15T08:51:54.353Z,99726.84
2023-01-15T08:54:24.721Z,99729.19
2023-01-15T08:56:51.540Z,99732.75
2023-01-15T08:59:18.900Z,99746.06
2023-01-15T09:01:48.120Z,99748.59
2023-01-15T09:04:20.575Z,99754.66
2023-01-15T09:06:50.247Z,99757.06
2023-01-15T09:09:18.863Z,99756.88
2023-01-15T09:11:45.817Z,99766.66
2023-01-15T09:14:58.403Z,99768.66
2023-01-15T09:17:02.313Z,99770.13
2023-01-15T09:19:29.048Z,99781.06
2023-01-15T09:21:55.758Z,99782.59
2023-01-15T09:24:22.814Z,99780.56
2023-01-15T09:26:53.358Z,99783.81
2023-01-15T09:29:20.142Z,99773.72
2023-01-15T09:31:47.273Z,99771.03
2023-01-15T09:34:13.957Z,99778.94
2023-01-15T09:36:41.594Z,99784.16
2023-01-15T09:39:08.612Z,99788.41
2023-01-15T09:42:05.439Z,99785.41
2023-01-15T09:44:40.046Z,99805.09
2023-01-15T09:47:12.333Z,99794.88
2023-01-15T09:50:15.644Z,99804.47
2023-01-15T09:52:51.216Z,99811.06
2023-01-15T09:55:27.547Z,99813.97
2023-01-15T09:57:58.277Z,99817.03
2023-01-15T10:00:27.933Z,99811.34
2023-01-15T10:03:19.231Z,99820.47
2023-01-15T10:05:55.634Z,99819.16
2023-01-15T10:08:29.277Z,99828.75
2023-01-15T10:11:02.712Z,99826.22
2023-01-15T10:13:51.437Z,99828.44
2023-01-15T10:16:24.687Z,99830.69
2023-01-15T10:18:52.899Z,99828.31
2023-01-15T10:21:25.426Z,99819.78
2023-01-15T10:24:03.869Z,99827.22
2023-01-15T10:26:35.734Z,99821.66
2023-01-15T10:29:29.742Z,99821.16
2023-01-15T10:32:21.868Z,99819.25
2023-01-15T10:35:10.497Z,99831.84
2023-01-15T10:37:59.201Z,99829.94
2023-01-15T10:40:40.430Z,99833.09
2023-01-15T10:43:39.200Z,99840.50
2023-01-15T10:46:14.181Z,99828.88
2023-01-15T10:48:59.956Z,99836.28
2023-01-15T10:51:35.215Z,99835.25
2023-01-15T10:54:14.605Z,99836.31
2023-01-15T10:56:43.566Z,99840.13
2023-01-15T10:59:16.875Z,99840.53
2023-01-15T11:01:44.004Z,99847.94
2023-01-15T11:04:14.081Z,99845.03
2023-01-15T11:06:41.950Z,99842.72
2023-01-15T11:09:24.719Z,99851.16
2023-01-15T11:12:18.544Z,99848.34
2023-01-15T11:15:05.008Z,99851.91
2023-01-15T11:17:56.045Z,99850.72
2023-01-15T11:20:27.577Z,99852.94
2023-01-15T11:22:56.267Z,99848.75
2023-01-15T11:25:29.439Z,99843.72
2023-01-15T11:27:57.627Z,99847.78
2023-01-15T11:30:29.489Z,99835.81
2023-01-15T11:33:04.328Z,99840.91
2023-01-15T11:35:32.999Z,99846.63
2023-01-15T11:38:17.873Z,99843.13
2023-01-15T11:41:03.272Z,99839.41
2023-01-15T11:43:50.268Z,99834.34
2023-01-15T11:46:50.685Z,99832.84
2023-01-15T11:49:40.103Z,99837.59
2023-01-15T11:52:10.590Z,99832.69
2023-01-15T11:54:43.893Z,99828.63
2023-01-15T11:57:12.210Z,99829.47
2023-01-15T11:59:39.081Z,99825.94
2023-01-15T12:02:43.843Z,99822.03
2023-01-15T12:05:20.593Z,99819.31
2023-01-15T12:07:50.059Z,99825.94
2023-01-15T12:10:44.814Z,99826.97
2023-01-15T12:13:25.235Z,99834.09
2023-01-15T12:16:30.302Z,99827.84
2023-01-15T12:19:22.798Z,99827.69
2023-01-15T12:22:33.777Z,99820.22
2023-01-15T12:25:08.020Z,99825.97
2023-01-15T12:27:47.938Z,99817.19
2023-01-15T12:30:36.812Z,99817.38
2023-01-15T12:33:14.630Z,99801.03
2023-01-15T12:35:45.772Z,99803.72
2023-01-15T12:38:24.891Z,99802.75
2023-01-15T12:41:00.738Z,99803.09
2023-01-15T12:43:47.668Z,99796.78
2023-01-15T12:46:23.415Z,99795.47
2023-01-15T12:48:54.787Z,99791.06
2023-01-15T12:51:29.791Z,99784.97
2023-01-15T12:54:04.598Z,99793.59
2023-01-15T12:57:03.992Z,99798.97
2023-01-15T12:59:46.585Z,99803.38
2023-01-15T13:02:35.224Z,99790.88
2023-01-15T13:05:18.127Z,99790.53
2023-01-15T13:08:00.213Z,99785.31
2023-01-15T13:10:31.184Z,99785.50
2023-01-15T13:13:20.932Z,99785.66
2023-01-15T13:16:05.752Z,99784.81
2023-01-15T13:18:58.044Z,99780.25
2023-01-15T13:21:27.333Z,99777.38
2023-01-15T13:24:37.096Z,99778.38
2023-01-15T13:27:22.190Z,99778.56
2023-01-15T13:30:02.828Z,99777.03
2023-01-15T13:32:34.681Z,99774.19
2023-01-15T13:35:27.932Z,99771.81
2023-01-15T13:37:58.319Z,99769.97
2023-01-15T13:40:28.027Z,99768.09
2023-01-15T13:42:56.317Z,99761.88
2023-01-15T13:45:28.134Z,99763.53
2023-01-15T13:48:02.576Z,99758.81
2023-01-15T13:50:32.985Z,99748.53
2023-01-15T13:53:23.090Z,99743.63
2023-01-15T13:55:56.101Z,99740.09
2023-01-15T13:58:26.919Z,99743.28
2023-01-15T14:01:21.783Z,99732.19
2023-01-15T14:04:06.772Z,99723.72
2023-01-15T14:06:36.611Z,99726.25
2023-01-15T14:09:05.315Z,99717.31
2023-01-15T14:11:39.808Z,99710.41
2023-01-15T14:14:43.649Z,99708.00
2023-01-15T14:17:41.311Z,99704.47
2023-01-15T14:20:34.296Z,99696.38
2023-01-15T14:23:22.310Z,99696.38
2023-01-15T14:26:02.748Z,99688.97
2023-01-15T14:28:49.126Z,99690.97
2023-01-15T14:31:37.401Z,99678.84
2023-01-15T14:34:22.777Z,99685.75
2023-01-15T14:37:01.995Z,99678.00
2023-01-15T14:39:33.845Z,99670.56
2023-01-15T14:42:31.675Z,99667.38
2023-01-15T14:45:22.725Z,99665.00
2023-01-15T14:48:13.889Z,99662.63
2023-01-15T14:50:44.058Z,99664.00
2023-01-15T14:53:13.827Z,99650.84
2023-01-15T14:55:49.124Z,99649.16
2023-01-15T14:58:21.837Z,99649.16
2023-01-15T15:00:54.361Z,99645.78
2023-01-15T15:03:37.423Z,99643.44
2023-01-15T15:06:06.766Z,99641.56
2023-01-15T15:08:35.619Z,99631.13
2023-01-15T15:11:25.105Z,99632.28
2023-01-15T15:13:56.355Z,99627.56
2023-01-15T15:16:27.420Z,99623.38
2023-01-15T15:19:02.635Z,99619.16
2023-01-15T15:21:34.102Z,99617.47
2023-01-15T15:24:12.428Z,99614.09
2023-01-15T15:26:40.246Z,99607.00
2023-01-15T15:29:18.164Z,99607.38
2023-01-15T15:31:56.287Z,99596.22
2023-01-15T15:34:35.453Z,99606.66
2023-01-15T15:37:14.007Z,99600.44
2023-01-15T15:39:45.622Z,99603.97
2023-01-15T15:42:49.562Z,99606.00
2023-01-15T15:45:38.487Z,99602.63
2023-01-15T15:48:41.129Z,99603.81
2023-01-15T15:51:42.687Z,99598.75
2023-01-15T15:54:18.729Z,99597.22
2023-01-15T15:57:00.775Z,99587.97
2023-01-15T15:59:37.133Z,99588.78
2023-01-15T16:02:19.434Z,99582.75
2023-01-15T16:05:41.828Z,99575.81
2023-01-15T16:08:20.747Z,99574.31
2023-01-15T16:10:51.425Z,99579.88
2023-01-15T16:13:51.816Z,99566.91
2023-01-15T16:16:20.326Z,99559.63
2023-01-15T16:18:54.955Z,99557.81
2023-01-15T16:21:34.736Z,99559.16
2023-01-15T16:24:04.053Z,99556.63
2023-01-15T16:26:38.249Z,99551.06
2023-01-15T16:29:16.038Z,99537.25
2023-01-15T16:31:43.102Z,99543.31
2023-01-15T16:34:33.086Z,99545.16
2023-01-15T16:37:00.827Z,99540.75
2023-01-15T16:39:30.436Z,99543.47
2023-01-15T16:41:58.722Z,99541.97
2023-01-15T16:44:49.833Z,99540.94
2023-01-15T16:47:32.587Z,99545.31
2023-01-15T16:50:24.431Z,99536.72
2023-01-15T16:52:55.704Z,99531.31
2023-01-15T16:55:34.682Z,99528.97
2023-01-15T16:58:33.431Z,99523.94
2023-01-15T17:01:46.169Z,99518.19
2023-01-15T17:04:24.498Z,99526.28
2023-01-15T17:07:13.970Z,99522.06
2023-01-15T17:09:48.290Z,99517.69
2023-01-15T17:12:38.480Z,99515.00
2023-01-15T17:15:14.421Z,99515.66
2023-01-15T17:17:49.561Z,99504.72
2023-01-15T17:20:19.087Z,99497.47
2023-01-15T17:22:49.444Z,99502.00
2023-01-15T17:25:35.209Z,99503.06
2023-01-15T17:28:03.468Z,99490.56
2023-01-15T17:30:31.628Z,99485.19
2023-01-15T17:32:59.420Z,99478.94
2023-01-15T17:35:31.199Z,99477.09
2023-01-15T17:37:57.950Z,99473.41
2023-01-15T17:40:25.451Z,99474.22
2023-01-15T17:42:53.934Z,99474.22
2023-01-15T17:45:28.787Z,99463.44
2023-01-15T17:47:55.975Z,99461.56
2023-01-15T17:50:22.747Z,99451.66
2023-01-15T17:52:50.122Z,99445.41
2023-01-15T17:55:40.616Z,99442.06
2023-01-15T17:58:29.755Z,99431.09
2023-01-15T18:01:15.222Z,99432.78
2023-01-15T18:04:05.790Z,99436.16
2023-01-15T18:06:33.647Z,99432.63
2023-01-15T18:09:02.829Z,99435.84
2023-01-15T18:11:30.031Z,99427.94
2023-01-15T18:13:57.190Z,99426.41
2023-01-15T18:16:26.384Z,99418.31
2023-01-15T18:18:54.232Z,99417.97
2023-01-15T18:21:21.546Z,99413.28
2023-01-15T18:23:48.288Z,99403.16
2023-01-15T18:26:15.193Z,99400.28
2023-01-15T18:28:41.917Z,99395.41
2023-01-15T18:31:08.678Z,99387.34
2023-01-15T18:33:35.666Z,99377.56
2023-01-15T18:36:13.443Z,99379.91
2023-01-15T18:38:47.425Z,99373.88
2023-01-15T18:41:35.410Z,99372.88
2023-01-15T18:45:03.708Z,99369.31
2023-01-15T18:48:30.240Z,99356.38
2023-01-15T18:52:00.721Z,99356.38
2023-01-15T18:54:27.491Z,99356.72
2023-01-15T18:56:54.149Z,99356.03
2023-01-15T18:59:22.582Z,99356.53
2023-01-15T19:01:49.556Z,99351.63
2023-01-15T19:04:16.905Z,99349.28
2023-01-15T19:06:44.764Z,99346.06
2023-01-15T19:09:16.550Z,99344.06
2023-01-15T19:11:44.416Z,99332.09
2023-01-15T19:14:30.016Z,99334.09
2023-01-15T19:17:15.491Z,99325.72
2023-01-15T19:19:43.447Z,99316.94
2023-01-15T19:22:29.870Z,99313.09
2023-01-15T19:24:57.167Z,99311.22
2023-01-15T19:27:23.969Z,99303.84
2023-01-15T19:29:50.872Z,99308.22
2023-01-15T19:32:17.640Z,99307.91
2023-01-15T19:34:44.456Z,99305.88
2023-01-15T19:37:11.236Z,99303.84
2023-01-15T19:39:38.078Z,99299.63
2023-01-15T19:42:24.000Z,99296.47
2023-01-15T19:45:09.668Z,99301.69
2023-01-15T19:47:59.474Z,99310.09
2023-01-15T19:50:38.585Z,99307.38
2023-01-15T19:53:06.204Z,99311.22
2023-01-15T19:55:33.692Z,99309.72
2023-01-15T19:58:02.954Z,99304.81
2023-01-15T20:00:30.959Z,99304.47
2023-01-15T20:02:58.228Z,99306.16
2023-01-15T20:05:27.414Z,99302.47
2023-01-15T20:07:54.675Z,99303.13
2023-01-15T20:10:23.987Z,99303.00
2023-01-15T20:13:09.963Z,99309.91
2023-01-15T20:15:38.956Z,99306.03
2023-01-15T20:18:06.265Z,99299.28
2023-01-15T20:20:33.149Z,99294.88
2023-01-15T20:23:00.016Z,99292.69
2023-01-15T20:25:28.385Z,99293.53
2023-01-15T20:27:56.691Z,99295.03
2023-01-15T20:30:25.332Z,99293.38
2023-01-15T20:32:54.291Z,99284.94
2023-01-15T20:35:25.195Z,99292.00
2023-01-15T20:37:52.259Z,99286.59
2023-01-15T20:40:22.480Z,99281.91
2023-01-15T20:43:08.266Z,99291.66
2023-01-15T20:45:35.303Z,99283.25
2023-01-15T20:48:11.845Z,99286.09
2023-01-15T20:51:00.934Z,99282.22
2023-01-15T20:53:36.930Z,99276.16
2023-01-15T20:56:13.415Z,99279.03
2023-01-15T20:58:40.779Z,99275.69
2023-01-15T21:01:11.017Z,99274.16
2023-01-15T21:03:39.065Z,99276.00
2023-01-15T21:06:06.940Z,99269.97
2023-01-15T21:08:34.110Z,99276.19
2023-01-15T21:11:01.538Z,99269.97
2023-01-15T21:13:28.610Z,99269.59
2023-01-15T21:16:01.732Z,99271.47
2023-01-15T21:18:30.518Z,99268.59
2023-01-15T21:20:57.299Z,99270.28
2023-01-15T21:23:24.583Z,99270.28
2023-01-15T21:25:51.552Z,99270.44
2023-01-15T21:28:18.339Z,99271.47
2023-01-15T21:30:45.082Z,99268.97
2023-01-15T21:33:12.096Z,99270.13
2023-01-15T21:35:40.561Z,99272.16
2023-01-15T21:38:08.662Z,99262.72
2023-01-15T21:40:39.400Z,99263.06
2023-01-15T21:43:24.922Z,99254.16
2023-01-15T21:45:52.247Z,99256.69
2023-01-15T21:48:19.122Z,99240.56
2023-01-15T21:50:45.961Z,99237.88
2023-01-15T21:53:12.838Z,99248.66
2023-01-15T21:55:39.561Z,99243.97
2023-01-15T21:58:06.289Z,99238.25
2023-01-15T22:00:33.398Z,99241.28
2023-01-15T22:03:00.145Z,99239.75
2023-01-15T22:05:28.694Z,99244.47
2023-01-15T22:07:56.321Z,99248.84
2023-01-15T22:10:23.874Z,99259.41
2023-01-15T22:12:50.542Z,99250.50
2023-01-15T22:15:17.657Z,99246.63
2023-01-15T22:17:44.385Z,99246.28
2023-01-15T22:20:12.514Z,99245.91
2023-01-15T22:22:39.622Z,99240.38
2023-01-15T22:25:08.689Z,99238.00
2023-01-15T22:27:41.023Z,99243.88
2023-01-15T22:30:13.618Z,99243.34
2023-01-15T22:32:40.351Z,99246.88
2023-01-15T22:35:08.036Z,99239.16
2023-01-15T22:37:34.785Z,99235.13
2023-01-15T22:40:01.459Z,99232.72
2023-01-15T22:42:28.422Z,99242.81
2023-01-15T22:44:57.229Z,99245.84
2023-01-15T22:47:23.945Z,99238.25
2023-01-15T22:49:51.089Z,99231.53
2023-01-15T22:52:17.992Z,99237.03
2023-01-15T22:54:46.100Z,99230.31
2023-01-15T22:57:13.595Z,99231.50
2023-01-15T22:59:40.408Z,99225.59
2023-01-15T23:02:07.542Z,99222.38
2023-01-15T23:04:34.392Z,99224.41
2023-01-15T23:07:01.495Z,99225.56
2023-01-15T23:09:28.600Z,99230.25
2023-01-15T23:11:55.383Z,99230.44
2023-01-15T23:14:22.718Z,99235.94
2023-01-15T23:16:50.262Z,99228.91
2023-01-15T23:19:18.807Z,99233.13
2023-01-15T23:21:45.683Z,99228.97
2023-01-15T23:24:12.693Z,99225.88
2023-01-15T23:26:39.738Z,99231.75
2023-01-15T23:29:06.911Z,99227.41
2023-01-15T23:31:34.312Z,99223.75
2023-01-15T23:34:01.583Z,99229.47
2023-01-15T23:36:28.633Z,99230.84
2023-01-15T23:38:55.947Z,99242.94
2023-01-15T23:41:44.108Z,99246.81
2023-01-15T23:44:38.013Z,99237.56
2023-01-15T23:47:06.176Z,99240.59
2023-01-15T23:49:33.351Z,99237.72
2023-01-15T23:52:00.666Z,99242.94
2023-01-15T23:54:28.877Z,99231.19
2023-01-15T23:56:56.578Z,99237.56
2023-01-15T23:59:23.604Z,99227.66
